Decoded Metar for PAWI (WAINWRIGHT in AK, USA) (IATA:AWI) | Meteo·Mobile Aviation Weather
aviador You're here:

PAWI Decoded Metar

WAINWRIGHT in AK, USA
Report Time2018-08-21 11:44:00
UTC Time2018-08-21 12:11:11
Flight Rules lifr LIFR
Wind060° at 12 kt
W.Decomp.*RWY 05: 11.9 kt HW 1.5 kt LCW
W.Rank060° ranks 1
Current wind is below 060° avg. (12.3)
Visibility2414 m
Phenomena:Mist
Clouds:Overcast 004 Hf
Ceiling400 ft
Temp03°C (ISA -12)
Dew Point03°C (100% RH)
AAT-2.8°C
QNH1017 hPa
Density Alt-1,381 ft
Elevation89 ft
Report Wrong Elevation
Raw Report
PAWI 211144Z AUTO 06012KT 1 1/2SM BR OVC004 03/03 A3003 RMK AO2
T00330033 TSNO=

Extra information for PAWI:More info

Metar Taf Metar & Taf Last 4 Metars F.Rules Stats Wind Profile Meteogram Temp Stats Airport Information Weather charts Add Link Nearby VenuesMetar ALERT Operation Metar Decoded Social comments

AIRNAV info for PAWI